createdAt,value
2018-08-30T00:00:15.043Z,99.90
2018-08-30T00:02:43.682Z,99.90
2018-08-30T00:05:12.120Z,99.90
2018-08-30T00:07:40.554Z,99.90
2018-08-30T00:10:08.956Z,99.90
2018-08-30T00:12:37.773Z,99.90
2018-08-30T00:15:06.407Z,99.90
2018-08-30T00:17:34.892Z,99.90
2018-08-30T00:20:03.544Z,99.90
2018-08-30T00:22:31.952Z,99.90
2018-08-30T00:25:00.321Z,99.90
2018-08-30T00:27:28.889Z,99.50
2018-08-30T00:29:57.996Z,99.90
2018-08-30T00:32:26.404Z,99.90
2018-08-30T00:34:54.812Z,99.40
2018-08-30T00:37:23.273Z,99.90
2018-08-30T00:39:51.708Z,99.90
2018-08-30T00:42:20.190Z,99.10
2018-08-30T00:44:48.547Z,99.20
2018-08-30T00:47:21.760Z,98.80
2018-08-30T00:49:51.231Z,98.50
2018-08-30T00:52:20.056Z,96.50
2018-08-30T00:54:48.501Z,95.40
2018-08-30T00:57:17.667Z,95.50
2018-08-30T00:59:46.284Z,95.30
2018-08-30T01:02:14.708Z,95.90
2018-08-30T01:04:43.285Z,95.50
2018-08-30T01:07:11.931Z,95.00
2018-08-30T01:09:40.327Z,95.30
2018-08-30T01:12:08.765Z,95.40
2018-08-30T01:14:37.093Z,95.70
2018-08-30T01:17:05.643Z,95.60
2018-08-30T01:19:34.159Z,94.50
2018-08-30T01:22:02.701Z,95.30
2018-08-30T01:24:31.108Z,95.00
2018-08-30T01:26:59.432Z,94.30
2018-08-30T01:29:27.852Z,94.30
2018-08-30T01:31:56.263Z,94.70
2018-08-30T01:34:24.641Z,94.90
2018-08-30T01:36:53.034Z,94.40
2018-08-30T01:39:21.371Z,94.20
2018-08-30T01:41:49.747Z,93.90
2018-08-30T01:44:18.175Z,94.10
2018-08-30T01:46:46.545Z,94.10
2018-08-30T01:49:15.018Z,94.20
2018-08-30T01:51:43.441Z,94.40
2018-08-30T01:54:11.982Z,94.30
2018-08-30T01:56:40.363Z,94.90
2018-08-30T01:59:08.747Z,94.80
2018-08-30T02:01:37.070Z,94.30
2018-08-30T02:04:05.483Z,94.70
2018-08-30T02:06:33.836Z,94.30
2018-08-30T02:09:02.227Z,94.70
2018-08-30T02:11:30.552Z,95.10
2018-08-30T02:13:58.964Z,95.60
2018-08-30T02:16:27.323Z,94.50
2018-08-30T02:18:55.748Z,94.70
2018-08-30T02:21:24.125Z,94.90
2018-08-30T02:23:52.503Z,95.10
2018-08-30T02:26:20.889Z,95.30
2018-08-30T02:28:49.283Z,95.30
2018-08-30T02:31:17.639Z,94.40
2018-08-30T02:33:46.086Z,94.10
2018-08-30T02:36:14.476Z,93.50
2018-08-30T02:38:42.895Z,93.30
2018-08-30T02:41:11.321Z,93.40
2018-08-30T02:43:39.711Z,94.20
2018-08-30T02:46:08.131Z,93.90
2018-08-30T02:48:36.542Z,93.20
2018-08-30T02:51:04.931Z,93.80
2018-08-30T02:53:33.305Z,94.20
2018-08-30T02:56:01.780Z,94.60
2018-08-30T02:58:30.143Z,94.30
2018-08-30T03:00:58.552Z,94.30
2018-08-30T03:03:26.922Z,94.30
2018-08-30T03:05:55.291Z,94.30
2018-08-30T03:08:23.769Z,94.70
2018-08-30T03:10:52.751Z,94.40
2018-08-30T03:13:21.100Z,95.60
2018-08-30T03:15:49.741Z,95.30
2018-08-30T03:18:18.357Z,95.00
2018-08-30T03:20:46.736Z,95.10
2018-08-30T03:23:15.171Z,94.10
2018-08-30T03:25:43.630Z,93.20
2018-08-30T03:28:12.213Z,93.60
2018-08-30T03:30:40.607Z,94.10
2018-08-30T03:33:08.966Z,93.80
2018-08-30T03:35:37.327Z,92.70
2018-08-30T03:38:05.961Z,91.90
2018-08-30T03:40:34.424Z,91.90
2018-08-30T03:43:02.748Z,92.40
2018-08-30T03:45:31.158Z,92.20
2018-08-30T03:47:59.501Z,92.20
2018-08-30T03:50:27.876Z,92.40
2018-08-30T03:52:56.254Z,92.40
2018-08-30T03:55:24.590Z,91.90
2018-08-30T03:57:52.960Z,92.00
2018-08-30T04:00:21.381Z,91.90
2018-08-30T04:02:49.726Z,92.00
2018-08-30T04:05:18.121Z,92.10
2018-08-30T04:07:46.504Z,92.40
2018-08-30T04:10:15.065Z,92.10
2018-08-30T04:12:43.696Z,91.90
2018-08-30T04:15:12.116Z,91.70
2018-08-30T04:17:40.577Z,91.50
2018-08-30T04:20:09.043Z,91.50
2018-08-30T04:22:37.429Z,91.50
2018-08-30T04:25:05.910Z,91.50
2018-08-30T04:27:34.373Z,91.60
2018-08-30T04:30:02.761Z,91.30
2018-08-30T04:32:31.100Z,91.50
2018-08-30T04:34:59.452Z,91.60
2018-08-30T04:37:27.844Z,91.50
2018-08-30T04:39:56.216Z,91.40
2018-08-30T04:42:24.638Z,91.40
2018-08-30T04:44:53.006Z,91.40
2018-08-30T04:47:21.441Z,91.50
2018-08-30T04:49:49.842Z,91.40
2018-08-30T04:52:18.215Z,91.90
2018-08-30T04:54:46.634Z,91.70
2018-08-30T04:57:15.168Z,91.60
2018-08-30T04:59:44.093Z,91.70
2018-08-30T05:02:12.798Z,92.30
2018-08-30T05:04:41.528Z,92.40
2018-08-30T05:07:09.972Z,92.70
2018-08-30T05:09:38.331Z,93.50
2018-08-30T05:12:06.762Z,93.10
2018-08-30T05:14:35.104Z,93.20
2018-08-30T05:17:03.562Z,93.20
2018-08-30T05:19:32.020Z,93.30
2018-08-30T05:22:00.392Z,93.50
2018-08-30T05:24:29.025Z,92.80
2018-08-30T05:26:57.382Z,92.30
2018-08-30T05:29:25.784Z,93.00
2018-08-30T05:31:54.300Z,92.00
2018-08-30T05:34:22.722Z,92.20
2018-08-30T05:36:51.077Z,91.90
2018-08-30T05:39:19.500Z,91.50
2018-08-30T05:41:47.972Z,91.50
2018-08-30T05:44:16.469Z,91.10
2018-08-30T05:46:45.860Z,91.30
2018-08-30T05:49:14.397Z,91.40
2018-08-30T05:51:42.833Z,91.30
2018-08-30T05:54:11.477Z,91.40
2018-08-30T05:56:41.411Z,91.30
2018-08-30T05:59:09.884Z,91.30
2018-08-30T06:01:38.276Z,91.20
2018-08-30T06:04:06.788Z,90.90
2018-08-30T06:06:35.235Z,90.80
2018-08-30T06:09:04.660Z,90.90
2018-08-30T06:11:33.060Z,90.90
2018-08-30T06:14:01.458Z,90.70
2018-08-30T06:16:30.000Z,90.40
2018-08-30T06:18:58.348Z,90.30
2018-08-30T06:21:26.762Z,90.50
2018-08-30T06:23:55.184Z,90.00
2018-08-30T06:26:23.668Z,90.10
2018-08-30T06:28:52.252Z,89.60
2018-08-30T06:31:20.733Z,89.60
2018-08-30T06:33:49.187Z,89.00
2018-08-30T06:36:17.803Z,89.30
2018-08-30T06:38:46.279Z,88.70
2018-08-30T06:41:14.862Z,88.30
2018-08-30T06:43:43.840Z,88.20
2018-08-30T06:46:12.261Z,88.50
2018-08-30T06:48:41.139Z,87.70
2018-08-30T06:51:09.601Z,87.00
2018-08-30T06:53:37.979Z,87.40
2018-08-30T06:56:06.435Z,87.00
2018-08-30T06:58:34.912Z,86.20
2018-08-30T07:01:03.277Z,85.80
2018-08-30T07:03:31.701Z,86.50
2018-08-30T07:06:00.106Z,85.80
2018-08-30T07:08:30.223Z,86.10
2018-08-30T07:10:58.689Z,85.40
2018-08-30T07:13:27.132Z,85.60
2018-08-30T07:15:55.529Z,84.50
2018-08-30T07:18:23.935Z,84.60
2018-08-30T07:20:52.485Z,84.70
2018-08-30T07:23:20.861Z,84.70
2018-08-30T07:25:49.353Z,83.60
2018-08-30T07:28:17.780Z,84.70
2018-08-30T07:30:46.529Z,82.90
2018-08-30T07:33:14.941Z,82.60
2018-08-30T07:35:43.483Z,83.20
2018-08-30T07:38:11.981Z,82.40
2018-08-30T07:40:40.817Z,82.40
2018-08-30T07:43:09.236Z,81.20
2018-08-30T07:45:37.601Z,78.90
2018-08-30T07:48:06.108Z,78.70
2018-08-30T07:50:36.959Z,78.70
2018-08-30T07:53:05.508Z,78.10
2018-08-30T07:55:33.888Z,78.20
2018-08-30T07:58:02.303Z,79.30
2018-08-30T08:00:30.669Z,78.00
2018-08-30T08:03:04.210Z,78.50
2018-08-30T08:05:33.900Z,77.90
2018-08-30T08:08:02.369Z,78.00
2018-08-30T08:10:30.831Z,77.70
2018-08-30T08:12:59.258Z,76.30
2018-08-30T08:15:27.700Z,74.30
2018-08-30T08:17:56.152Z,71.90
2018-08-30T08:20:24.573Z,71.30
2018-08-30T08:22:53.042Z,70.60
2018-08-30T08:25:21.803Z,70.00
2018-08-30T08:27:50.182Z,68.20
2018-08-30T08:30:18.916Z,67.60
2018-08-30T08:32:47.285Z,68.90
2018-08-30T08:35:15.759Z,70.50
2018-08-30T08:37:44.251Z,70.60
2018-08-30T08:40:12.717Z,71.80
2018-08-30T08:42:41.241Z,70.60
2018-08-30T08:45:09.693Z,69.20
2018-08-30T08:47:38.291Z,69.00
2018-08-30T08:50:06.713Z,67.00
2018-08-30T08:52:35.102Z,67.10
2018-08-30T08:55:03.553Z,67.20
2018-08-30T08:57:33.744Z,67.40
2018-08-30T09:00:02.894Z,67.00
2018-08-30T09:02:31.336Z,66.10
2018-08-30T09:04:59.713Z,65.30
2018-08-30T09:07:28.191Z,65.10
2018-08-30T09:09:56.643Z,65.20
2018-08-30T09:12:25.208Z,65.30
2018-08-30T09:14:54.925Z,64.90
2018-08-30T09:17:23.408Z,65.80
2018-08-30T09:19:51.797Z,64.80
2018-08-30T09:22:20.281Z,65.50
2018-08-30T09:24:48.712Z,66.80
2018-08-30T09:27:17.285Z,67.50
2018-08-30T09:29:45.986Z,68.90
2018-08-30T09:32:14.448Z,69.10
2018-08-30T09:34:42.962Z,68.20
2018-08-30T09:37:14.065Z,67.80
2018-08-30T09:39:43.212Z,67.20
2018-08-30T09:42:11.720Z,67.10
2018-08-30T09:44:40.201Z,67.30
2018-08-30T09:47:09.710Z,66.40
2018-08-30T09:49:38.249Z,66.20
2018-08-30T09:52:06.606Z,65.90
2018-08-30T09:54:35.078Z,66.10
2018-08-30T09:57:03.616Z,66.00
2018-08-30T09:59:31.960Z,67.90
2018-08-30T10:02:06.508Z,66.90
2018-08-30T10:04:35.082Z,65.60
2018-08-30T10:07:03.863Z,64.80
2018-08-30T10:09:32.328Z,63.80
2018-08-30T10:12:00.764Z,63.10
2018-08-30T10:14:29.324Z,61.90
2018-08-30T10:16:57.792Z,62.60
2018-08-30T10:19:26.325Z,62.30
2018-08-30T10:21:54.819Z,63.20
2018-08-30T10:24:23.280Z,63.70
2018-08-30T10:26:51.827Z,63.40
2018-08-30T10:29:20.243Z,63.40
2018-08-30T10:31:48.641Z,63.50
2018-08-30T10:34:17.080Z,63.20
2018-08-30T10:36:45.524Z,63.00
2018-08-30T10:39:14.004Z,63.40
2018-08-30T10:41:42.566Z,64.50
2018-08-30T10:44:11.188Z,63.60
2018-08-30T10:46:39.665Z,63.90
2018-08-30T10:49:08.264Z,62.50
2018-08-30T10:51:37.062Z,62.20
2018-08-30T10:54:05.609Z,62.00
2018-08-30T10:56:34.091Z,62.40
2018-08-30T10:59:02.660Z,61.60
2018-08-30T11:01:31.703Z,61.70
2018-08-30T11:04:00.234Z,62.40
2018-08-30T11:06:28.849Z,61.10
2018-08-30T11:08:57.273Z,60.00
2018-08-30T11:11:26.130Z,59.90
2018-08-30T11:13:54.748Z,58.60
2018-08-30T11:16:23.450Z,57.50
2018-08-30T11:18:51.941Z,54.70
2018-08-30T11:21:21.613Z,53.70
2018-08-30T11:23:50.186Z,52.10
2018-08-30T11:26:18.760Z,52.90
2018-08-30T11:28:47.409Z,54.10
2018-08-30T11:31:16.117Z,55.20
2018-08-30T11:33:44.825Z,56.20
2018-08-30T11:36:13.650Z,55.90
2018-08-30T11:38:42.295Z,54.80
2018-08-30T11:41:11.014Z,52.20
2018-08-30T11:43:39.447Z,50.70
2018-08-30T11:46:08.009Z,49.20
2018-08-30T11:48:36.585Z,49.00
2018-08-30T11:51:05.234Z,48.60
2018-08-30T11:53:33.731Z,48.20
2018-08-30T11:56:02.299Z,45.50
2018-08-30T11:58:30.677Z,44.20
2018-08-30T12:00:59.211Z,43.80
2018-08-30T12:03:27.660Z,44.50
2018-08-30T12:05:56.567Z,44.80
2018-08-30T12:08:25.067Z,44.70
2018-08-30T12:10:53.562Z,45.50
2018-08-30T12:13:22.166Z,46.40
2018-08-30T12:15:50.624Z,46.00
2018-08-30T12:18:19.140Z,45.90
2018-08-30T12:20:47.800Z,45.80
2018-08-30T12:23:16.143Z,42.20
2018-08-30T12:25:44.779Z,42.90
2018-08-30T12:28:13.288Z,43.50
2018-08-30T12:30:41.799Z,44.80
2018-08-30T12:33:10.313Z,42.90
2018-08-30T12:35:38.804Z,41.60
2018-08-30T12:38:07.259Z,42.30
2018-08-30T12:40:35.829Z,43.30
2018-08-30T12:43:04.339Z,44.20
2018-08-30T12:45:32.798Z,44.00
2018-08-30T12:48:01.318Z,43.70
2018-08-30T12:50:30.158Z,43.90
2018-08-30T12:52:58.562Z,44.30
2018-08-30T12:55:27.019Z,45.70
2018-08-30T12:57:55.436Z,45.50
2018-08-30T13:00:23.989Z,45.60
2018-08-30T13:02:53.526Z,45.50
2018-08-30T13:05:22.032Z,44.70
2018-08-30T13:07:50.349Z,45.20
2018-08-30T13:10:19.084Z,45.90
2018-08-30T13:12:47.179Z,46.20
2018-08-30T13:15:15.991Z,46.00
2018-08-30T13:17:44.207Z,46.80
2018-08-30T13:20:13.004Z,47.00
2018-08-30T13:22:41.567Z,47.50
2018-08-30T13:25:10.083Z,48.60
2018-08-30T13:27:39.246Z,48.60
2018-08-30T13:30:08.237Z,48.50
2018-08-30T13:32:36.797Z,48.80
2018-08-30T13:35:05.521Z,48.80
2018-08-30T13:37:34.133Z,48.80
2018-08-30T13:40:02.526Z,48.90
2018-08-30T13:42:31.474Z,48.90
2018-08-30T13:44:59.961Z,47.70
2018-08-30T13:47:28.169Z,47.00
2018-08-30T13:49:56.481Z,46.90
2018-08-30T13:52:25.120Z,46.50
2018-08-30T13:54:53.629Z,46.50
2018-08-30T13:57:22.571Z,46.20
2018-08-30T13:59:51.055Z,45.30
2018-08-30T14:02:19.373Z,45.40
2018-08-30T14:04:47.831Z,46.20
2018-08-30T14:07:16.489Z,47.00
2018-08-30T14:09:45.145Z,47.30
2018-08-30T14:12:14.023Z,47.80
2018-08-30T14:14:42.302Z,47.80
2018-08-30T14:17:10.403Z,48.40
2018-08-30T14:19:38.752Z,49.00
2018-08-30T14:22:07.154Z,49.10
2018-08-30T14:24:35.565Z,48.40
2018-08-30T14:27:05.975Z,48.60
2018-08-30T14:29:34.458Z,47.90
2018-08-30T14:32:02.841Z,47.10
2018-08-30T14:34:31.175Z,45.00
2018-08-30T14:36:59.617Z,45.00
2018-08-30T14:39:28.008Z,43.60
2018-08-30T14:41:56.509Z,43.60
2018-08-30T14:44:24.795Z,43.00
2018-08-30T14:46:53.278Z,40.40
2018-08-30T14:49:23.696Z,40.00
2018-08-30T14:51:52.172Z,39.50
2018-08-30T14:54:20.587Z,39.60
2018-08-30T14:56:49.716Z,39.00
2018-08-30T14:59:18.359Z,39.40
2018-08-30T15:01:46.735Z,39.80
2018-08-30T15:04:15.248Z,39.70
2018-08-30T15:06:43.958Z,38.20
2018-08-30T15:09:12.615Z,39.10
2018-08-30T15:11:40.965Z,39.50
2018-08-30T15:14:09.435Z,39.40
2018-08-30T15:16:37.824Z,39.50
2018-08-30T15:19:06.269Z,40.30
2018-08-30T15:21:34.661Z,39.80
2018-08-30T15:24:03.141Z,40.40
2018-08-30T15:26:31.754Z,40.40
2018-08-30T15:29:00.017Z,41.10
2018-08-30T15:31:28.388Z,41.80
2018-08-30T15:33:56.958Z,41.90
2018-08-30T15:36:25.268Z,41.80
2018-08-30T15:38:53.736Z,42.40
2018-08-30T15:41:22.185Z,42.70
2018-08-30T15:43:50.653Z,42.70
2018-08-30T15:46:19.176Z,43.00
2018-08-30T15:48:47.759Z,41.70
2018-08-30T15:51:16.272Z,41.80
2018-08-30T15:53:44.976Z,42.00
2018-08-30T15:56:13.720Z,42.20
2018-08-30T15:58:42.308Z,42.10
2018-08-30T16:01:10.897Z,41.00
2018-08-30T16:03:39.420Z,41.20
2018-08-30T16:06:07.895Z,40.70
2018-08-30T16:08:36.720Z,40.50
2018-08-30T16:11:05.229Z,39.80
2018-08-30T16:13:33.613Z,40.10
2018-08-30T16:16:02.093Z,38.90
2018-08-30T16:18:31.032Z,39.40
2018-08-30T16:20:59.557Z,39.00
2018-08-30T16:23:34.551Z,39.90
2018-08-30T16:26:03.853Z,40.20
2018-08-30T16:28:33.871Z,40.70
2018-08-30T16:31:03.058Z,40.60
2018-08-30T16:33:32.423Z,40.70
2018-08-30T16:36:01.327Z,40.60
2018-08-30T16:38:29.922Z,40.90
2018-08-30T16:40:58.557Z,40.00
2018-08-30T16:43:27.340Z,39.90
2018-08-30T16:45:55.776Z,39.30
2018-08-30T16:48:24.792Z,39.20
2018-08-30T16:50:53.988Z,38.70
2018-08-30T16:53:23.645Z,38.70
2018-08-30T16:55:52.268Z,39.80
2018-08-30T16:58:20.969Z,40.00
2018-08-30T17:00:49.522Z,40.40
2018-08-30T17:03:17.924Z,40.60
2018-08-30T17:05:46.534Z,40.50
2018-08-30T17:08:15.336Z,40.40
2018-08-30T17:10:44.278Z,40.70
2018-08-30T17:13:12.776Z,40.80
2018-08-30T17:15:41.435Z,40.60
2018-08-30T17:18:09.947Z,40.70
2018-08-30T17:20:43.380Z,41.30
2018-08-30T17:23:12.362Z,41.30
2018-08-30T17:25:42.430Z,40.80
2018-08-30T17:28:11.248Z,41.30
2018-08-30T17:30:40.615Z,41.00
2018-08-30T17:33:09.607Z,40.90
2018-08-30T17:35:38.148Z,40.40
2018-08-30T17:38:06.743Z,40.00
2018-08-30T17:40:35.447Z,40.70
2018-08-30T17:43:03.860Z,40.90
2018-08-30T17:45:32.405Z,41.30
2018-08-30T17:48:01.097Z,40.60
2018-08-30T17:50:29.717Z,40.20
2018-08-30T17:52:58.294Z,40.20
2018-08-30T17:55:26.794Z,40.30
2018-08-30T17:57:55.401Z,40.50
2018-08-30T18:00:24.155Z,40.90
2018-08-30T18:02:52.711Z,41.50
2018-08-30T18:05:21.129Z,41.90
2018-08-30T18:07:49.470Z,42.90
2018-08-30T18:10:18.269Z,42.80
2018-08-30T18:12:46.826Z,42.00
2018-08-30T18:15:16.280Z,42.00
2018-08-30T18:17:45.763Z,42.60
2018-08-30T18:20:14.271Z,42.40
2018-08-30T18:22:42.999Z,41.60
2018-08-30T18:25:11.783Z,41.40
2018-08-30T18:27:40.746Z,41.40
2018-08-30T18:30:10.450Z,41.50
2018-08-30T18:32:39.411Z,41.90
2018-08-30T18:35:09.170Z,42.60
2018-08-30T18:37:38.430Z,43.10
2018-08-30T18:40:07.924Z,45.10
2018-08-30T18:42:36.348Z,46.20
2018-08-30T18:45:05.051Z,46.70
2018-08-30T18:47:33.558Z,46.60
2018-08-30T18:50:02.059Z,46.60
2018-08-30T18:52:30.721Z,46.50
2018-08-30T18:54:59.342Z,49.80
2018-08-30T18:57:27.812Z,51.00
2018-08-30T18:59:56.285Z,51.10
2018-08-30T19:02:24.913Z,52.00
2018-08-30T19:04:53.452Z,52.80
2018-08-30T19:07:22.376Z,52.50
2018-08-30T19:09:51.003Z,52.70
2018-08-30T19:12:19.599Z,52.90
2018-08-30T19:14:48.215Z,52.40
2018-08-30T19:17:22.026Z,52.20
2018-08-30T19:19:50.516Z,53.40
2018-08-30T19:22:19.092Z,53.90
2018-08-30T19:24:52.966Z,54.80
2018-08-30T19:27:21.751Z,54.50
2018-08-30T19:29:55.733Z,55.10
2018-08-30T19:32:24.306Z,53.50
2018-08-30T19:34:52.863Z,53.60
2018-08-30T19:37:21.313Z,54.00
2018-08-30T19:39:49.776Z,54.00
2018-08-30T19:42:18.503Z,54.10
2018-08-30T19:44:47.189Z,54.90
2018-08-30T19:47:15.816Z,54.80
2018-08-30T19:49:44.537Z,54.70
2018-08-30T19:52:13.369Z,54.60
2018-08-30T19:54:42.924Z,54.70
2018-08-30T19:57:12.860Z,55.10
2018-08-30T19:59:41.616Z,54.90
2018-08-30T20:02:10.251Z,55.30
2018-08-30T20:04:38.620Z,55.90
2018-08-30T20:07:07.100Z,55.80
2018-08-30T20:09:35.765Z,56.40
2018-08-30T20:12:04.198Z,57.30
2018-08-30T20:14:32.754Z,56.70
2018-08-30T20:17:01.325Z,57.30
2018-08-30T20:19:30.005Z,57.00
2018-08-30T20:21:58.526Z,56.70
2018-08-30T20:24:27.112Z,56.80
2018-08-30T20:26:56.225Z,58.10
2018-08-30T20:29:24.637Z,57.80
2018-08-30T20:31:53.497Z,57.80
2018-08-30T20:34:22.073Z,57.80
2018-08-30T20:36:50.523Z,59.20
2018-08-30T20:39:19.395Z,61.40
2018-08-30T20:41:48.175Z,61.00
2018-08-30T20:44:17.305Z,61.20
2018-08-30T20:46:46.259Z,61.60
2018-08-30T20:49:15.297Z,61.10
2018-08-30T20:51:44.714Z,61.30
2018-08-30T20:54:13.496Z,62.00
2018-08-30T20:56:42.407Z,62.30
2018-08-30T20:59:11.274Z,62.90
2018-08-30T21:01:40.091Z,63.10
2018-08-30T21:04:09.359Z,63.50
2018-08-30T21:06:38.014Z,64.20
2018-08-30T21:09:09.176Z,64.60
2018-08-30T21:11:38.375Z,64.80
2018-08-30T21:14:06.806Z,65.20
2018-08-30T21:16:36.274Z,65.90
2018-08-30T21:19:05.107Z,66.20
2018-08-30T21:21:34.764Z,66.20
2018-08-30T21:24:03.451Z,66.20
2018-08-30T21:26:35.910Z,67.00
2018-08-30T21:29:04.916Z,66.20
2018-08-30T21:31:34.092Z,67.00
2018-08-30T21:34:02.586Z,66.10
2018-08-30T21:36:30.995Z,63.40
2018-08-30T21:39:00.706Z,64.30
2018-08-30T21:41:29.088Z,65.20
2018-08-30T21:43:57.586Z,65.30
2018-08-30T21:46:27.522Z,65.20
2018-08-30T21:48:56.666Z,65.20
2018-08-30T21:51:25.800Z,66.50
2018-08-30T21:53:54.908Z,67.00
2018-08-30T21:56:23.485Z,66.80
2018-08-30T21:58:52.017Z,66.70
2018-08-30T22:01:20.572Z,67.20
2018-08-30T22:03:48.985Z,67.20
2018-08-30T22:06:17.574Z,67.60
2018-08-30T22:08:46.419Z,68.00
2018-08-30T22:11:14.882Z,69.10
2018-08-30T22:13:43.454Z,68.70
2018-08-30T22:16:12.004Z,69.70
2018-08-30T22:18:42.911Z,69.70
2018-08-30T22:21:11.544Z,68.90
2018-08-30T22:23:40.020Z,68.20
2018-08-30T22:26:10.522Z,68.20
2018-08-30T22:28:38.998Z,68.10
2018-08-30T22:31:07.732Z,68.50
2018-08-30T22:33:36.899Z,69.90
2018-08-30T22:36:05.348Z,69.80
2018-08-30T22:38:33.768Z,70.10
2018-08-30T22:41:02.181Z,70.30
2018-08-30T22:43:30.616Z,70.50
2018-08-30T22:45:59.076Z,70.90
2018-08-30T22:48:27.499Z,70.90
2018-08-30T22:50:55.872Z,71.20
2018-08-30T22:53:24.494Z,71.60
2018-08-30T22:55:52.879Z,71.60
2018-08-30T22:58:21.377Z,71.50
2018-08-30T23:00:49.799Z,72.20
2018-08-30T23:03:18.244Z,72.60
2018-08-30T23:05:46.832Z,72.50
2018-08-30T23:08:15.571Z,72.30
2018-08-30T23:10:44.244Z,72.70
2018-08-30T23:13:12.771Z,73.10
2018-08-30T23:15:41.313Z,71.50
2018-08-30T23:18:09.751Z,71.30
2018-08-30T23:20:38.176Z,71.40
2018-08-30T23:23:06.608Z,71.50
2018-08-30T23:25:35.084Z,71.50
2018-08-30T23:28:03.490Z,71.60
2018-08-30T23:30:31.946Z,70.90
2018-08-30T23:33:00.349Z,71.20
2018-08-30T23:35:28.833Z,71.60
2018-08-30T23:37:57.284Z,71.10
2018-08-30T23:40:25.700Z,71.50
2018-08-30T23:42:54.930Z,71.50
2018-08-30T23:45:24.062Z,69.90
2018-08-30T23:47:52.703Z,67.00
2018-08-30T23:50:21.151Z,66.20
2018-08-30T23:52:49.569Z,65.80
2018-08-30T23:55:18.164Z,68.90
2018-08-30T23:57:57.840Z,69.30
